Flight Track Log - Related Links

Times and Time Zones

All times are in EDT time to prevent confusion due to time zone crossing. See the SKQ225 flight status page for this flight to view local times or setup timezone preferences in your user account.

Time Position Orientation Groundspeed Altitude Reporting Facility
EDT Latitude Longitude Course Direction KTS MPH feet Rate Location/Type
Tue 03:42:17 AM 38.2103 -85.6131 49° Northeast 137 158 4,400  Level Indianapolis Center
Tue 03:43:17 AM 38.2367 -85.5772 47° Northeast 138 159 5,500 1,041 Climbing Indianapolis Center
Tue 03:44:18 AM 38.2636 -85.5436 44° Northeast 137 158 6,500 694 Climbing Indianapolis Center
Tue 03:45:00 AM 38.3483 -85.4850 38° Northeast  Level FlightAware Approximate
Tue 03:45:18 AM 38.2919 -85.5050 47° Northeast 146 168 6,900  Level Indianapolis Center
Tue 03:46:00 AM 38.3813 -85.4472 46° Northeast  Level FlightAware Approximate
Tue 03:46:19 AM 38.3294 -85.4575 45° Northeast 180 207 7,000  Level Indianapolis Center
Tue 03:47:18 AM 38.3672 -85.4097 45° Northeast 190 219 7,000 -50 Level Indianapolis Center
Tue 03:48:18 AM 38.4031 -85.3617 46° Northeast 187 215 6,900 -50 Descending Indianapolis Center
Tue 03:49:18 AM 38.4389 -85.3147 46° Northeast 185 213 6,900  Level Indianapolis Center
Tue 03:50:19 AM 38.4731 -85.2672 47° Northeast 183 211 6,900 50 Level Indianapolis Center
Tue 03:51:19 AM 38.5094 -85.2192 46° Northeast 186 214 7,000 50 Climbing Indianapolis Center
Tue 03:52:19 AM 38.5442 -85.1739 46° Northeast 186 214 7,000 -50 Level Indianapolis Center
Tue 03:53:19 AM 38.5789 -85.1308 44° Northeast 186 214 6,900 -50 Descending Indianapolis Center
Tue 03:54:19 AM 38.6169 -85.0794 47° Northeast 187 215 6,900  Level Indianapolis Center
Tue 03:55:20 AM 38.6506 -85.0342 46° Northeast 187 215 6,900  Level Indianapolis Center
Tue 03:56:20 AM 38.6869 -84.9853 46° Northeast 188 216 6,900 50 Level Indianapolis Center
Tue 03:57:20 AM 38.7231 -84.9361 47° Northeast 188 216 7,000 50 Climbing Indianapolis Center
Tue 03:58:20 AM 38.7600 -84.8875 46° Northeast 190 219 7,000 -50 Level Indianapolis Center
Tue 03:59:21 AM 38.7975 -84.8383 46° Northeast 193 222 6,900 -50 Descending Indianapolis Center
Tue 04:00:21 AM 38.8336 -84.7900 46° Northeast 189 217 6,900  Level Indianapolis Center
Tue 04:01:21 AM 38.8711 -84.7411 45° Northeast 189 217 6,900 55 Level Indianapolis Center
Tue 04:02:11 AM 38.9000 -84.7000 48° Northeast 190 219 7,000 109 Climbing Cincinnati TRACON
Tue 04:03:11 AM 38.9333 -84.6500 49° Northeast 193 222 7,100 50 Climbing Cincinnati TRACON
Tue 04:04:11 AM 38.9833 -84.6000 38° Northeast 191 220 7,100 -50 Level Cincinnati TRACON
Tue 04:05:11 AM 39.0167 -84.5500 49° Northeast 191 220 7,000 -50 Descending Cincinnati TRACON
Tue 04:06:11 AM 39.0500 -84.5000 49° Northeast 193 222 7,000  Level Cincinnati TRACON
Tue 04:07:11 AM 39.0833 -84.4500 49° Northeast 189 217 7,000 50 Level Cincinnati TRACON
Tue 04:08:11 AM 39.1167 -84.4000 49° Northeast 188 216 7,100 52 Climbing Cincinnati TRACON
Tue 04:09:06 AM 39.1558 -84.3564 41° Northeast 190 219 7,100  Level Indianapolis Center
Tue 04:09:23 AM 39.1650 -84.3419 51° Northeast 189 217 7,100 -91 Level Indianapolis Center
Tue 04:10:12 AM 39.1936 -84.3050 45° Northeast 191 220 7,000  Descending Indianapolis Center
Tue 04:11:24 AM 39.2394 -84.2411 47° Northeast 193 222 7,100  Climbing Indianapolis Center
Tue 04:12:13 AM 39.2667 -84.2039 47° Northeast 192 221 7,000 -55 Descending Indianapolis Center
Tue 04:13:14 AM 39.3067 -84.1500 46° Northeast 192 221 7,000 49 Level Indianapolis Center
Tue 04:14:15 AM 39.3439 -84.1008 46° Northeast 191 220 7,100  Climbing Indianapolis Center
Tue 04:15:15 AM 39.3906 -84.0664 30° Northeast 192 221 7,000 -50 Descending Indianapolis Center
Tue 04:16:16 AM 39.4356 -84.0289 33° Northeast 193 222 7,000  Level Indianapolis Center
Tue 04:17:16 AM 39.4800 -83.9942 31° Northeast 193 222 7,000  Level Indianapolis Center
Tue 04:18:17 AM 39.5250 -83.9567 33° Northeast 191 220 7,000  Level Indianapolis Center
Tue 04:19:18 AM 39.5742 -83.9169 32° Northeast 192 221 7,000  Level Indianapolis Center
Tue 04:20:18 AM 39.6208 -83.8822 30° Northeast 192 221 7,000 50 Level Indianapolis Center
Tue 04:21:19 AM 39.6653 -83.8472 31° Northeast 191 220 7,100  Climbing Indianapolis Center
Tue 04:22:19 AM 39.7119 -83.8125 30° Northeast 193 222 7,000  Descending Indianapolis Center
Tue 04:23:20 AM 39.7567 -83.7747 33° Northeast 192 221 7,100  Climbing Indianapolis Center
Tue 04:24:27 AM 39.8100 -83.7353 30° Northeast 191 220 7,000 -47 Descending Indianapolis Center
Tue 04:25:27 AM 39.8525 -83.6972 35° Northeast 190 219 7,000  Level Indianapolis Center
Tue 04:26:28 AM 39.8972 -83.6594 33° Northeast 190 219 7,000 -148 Level Indianapolis Center
Tue 04:27:29 AM 39.9306 -83.6036 52° Northeast 195 224 6,700 -496 Descending Indianapolis Center
Tue 04:28:29 AM 39.9644 -83.5444 53° Northeast 201 231 6,000 -793 Descending Indianapolis Center
Tue 04:29:30 AM 40.0042 -83.4875 48° Northeast 214 246 5,100 -744 Descending Indianapolis Center
Tue 04:30:30 AM 40.0439 -83.4297 48° Northeast 215 247 4,500 -700 Descending Indianapolis Center
Tue 04:31:30 AM 40.0656 -83.3722 64° Northeast 209 241 3,700 -496 Descending Indianapolis Center
Tue 04:32:31 AM 40.0692 -83.2917 87° East 206 237 3,500 -197 Descending Indianapolis Center
Tue 04:34:00 AM 40.0681 -83.1949 91° East  Level FlightAware Approximate
Tue 04:41:00 AM 40.0667 -83.0667 77° East  Level FlightAware Approximate
Tue 04:42:00 AM 40.0798 -83.0732 77° East  Level Estimated

Login

Don't have an account? Register now (free) for customized features, flight alerts, and more!